createdAt,value
2018-08-18T00:00:42.901Z,21.30
2018-08-18T00:03:11.796Z,21.30
2018-08-18T00:05:39.473Z,21.30
2018-08-18T00:08:07.208Z,21.30
2018-08-18T00:10:34.962Z,21.30
2018-08-18T00:13:02.686Z,21.30
2018-08-18T00:15:30.377Z,21.30
2018-08-18T00:17:58.044Z,21.30
2018-08-18T00:20:25.976Z,21.30
2018-08-18T00:22:53.844Z,21.30
2018-08-18T00:25:21.517Z,21.30
2018-08-18T00:27:49.188Z,21.30
2018-08-18T00:30:22.394Z,21.30
2018-08-18T00:32:50.092Z,21.30
2018-08-18T00:35:17.806Z,21.30
2018-08-18T00:37:45.505Z,21.30
2018-08-18T00:40:13.220Z,21.30
2018-08-18T00:42:42.475Z,21.30
2018-08-18T00:45:12.808Z,21.30
2018-08-18T00:47:42.686Z,21.20
2018-08-18T00:50:11.820Z,21.20
2018-08-18T00:52:42.368Z,21.20
2018-08-18T00:55:12.167Z,21.20
2018-08-18T00:57:42.260Z,21.20
2018-08-18T01:00:09.944Z,21.20
2018-08-18T01:02:37.635Z,21.20
2018-08-18T01:05:06.301Z,21.20
2018-08-18T01:07:34.855Z,21.20
2018-08-18T01:10:03.700Z,21.10
2018-08-18T01:12:31.450Z,21.10
2018-08-18T01:14:59.164Z,21.10
2018-08-18T01:17:26.829Z,21.10
2018-08-18T01:19:55.861Z,21.10
2018-08-18T01:22:23.516Z,21.10
2018-08-18T01:24:52.812Z,21.10
2018-08-18T01:27:20.660Z,21.10
2018-08-18T01:29:53.917Z,21.10
2018-08-18T01:32:21.594Z,21.10
2018-08-18T01:34:50.412Z,21.10
2018-08-18T01:37:19.760Z,21.10
2018-08-18T01:39:49.179Z,21.00
2018-08-18T01:42:17.756Z,21.00
2018-08-18T01:44:45.424Z,21.00
2018-08-18T01:47:13.987Z,21.00
2018-08-18T01:49:43.488Z,21.00
2018-08-18T01:52:17.591Z,21.00
2018-08-18T01:54:45.763Z,21.00
2018-08-18T01:57:14.514Z,21.00
2018-08-18T01:59:44.419Z,21.00
2018-08-18T02:02:20.516Z,21.00
2018-08-18T02:04:48.719Z,21.00
2018-08-18T02:07:24.007Z,21.00
2018-08-18T02:09:51.783Z,21.00
2018-08-18T02:12:19.460Z,20.90
2018-08-18T02:14:47.117Z,20.90
2018-08-18T02:17:21.109Z,20.90
2018-08-18T02:19:49.184Z,20.90
2018-08-18T02:22:16.839Z,20.90
2018-08-18T02:24:44.925Z,20.90
2018-08-18T02:27:13.850Z,20.90
2018-08-18T02:29:44.060Z,20.90
2018-08-18T02:32:19.162Z,20.90
2018-08-18T02:34:46.836Z,20.90
2018-08-18T02:37:14.501Z,20.90
2018-08-18T02:39:43.192Z,20.90
2018-08-18T02:42:11.824Z,20.90
2018-08-18T02:44:39.487Z,20.90
2018-08-18T02:47:07.154Z,20.90
2018-08-18T02:49:41.670Z,20.90
2018-08-18T02:52:13.693Z,20.80
2018-08-18T02:54:43.124Z,20.80
2018-08-18T02:57:11.603Z,20.80
2018-08-18T02:59:42.733Z,20.80
2018-08-18T03:02:12.275Z,20.90
2018-08-18T03:04:48.879Z,20.90
2018-08-18T03:07:16.663Z,20.90
2018-08-18T03:09:44.343Z,20.80
2018-08-18T03:12:12.663Z,20.80
2018-08-18T03:14:41.608Z,20.80
2018-08-18T03:17:09.584Z,20.80
2018-08-18T03:19:38.176Z,20.80
2018-08-18T03:22:06.845Z,20.80
2018-08-18T03:24:34.533Z,20.80
2018-08-18T03:27:02.201Z,20.80
2018-08-18T03:29:30.624Z,20.80
2018-08-18T03:31:59.292Z,20.80
2018-08-18T03:34:27.884Z,20.80
2018-08-18T03:36:56.900Z,20.80
2018-08-18T03:39:31.204Z,20.80
2018-08-18T03:42:00.193Z,20.80
2018-08-18T03:44:28.819Z,20.80
2018-08-18T03:46:57.504Z,20.80
2018-08-18T03:49:26.184Z,20.80
2018-08-18T03:51:54.979Z,20.80
2018-08-18T03:54:23.721Z,20.80
2018-08-18T03:56:52.307Z,20.80
2018-08-18T03:59:21.020Z,20.90
2018-08-18T04:01:53.090Z,21.00
2018-08-18T04:04:22.956Z,21.10
2018-08-18T04:06:52.800Z,21.10
2018-08-18T04:09:22.290Z,21.20
2018-08-18T04:11:51.129Z,21.30
2018-08-18T04:14:20.392Z,21.30
2018-08-18T04:16:50.128Z,21.30
2018-08-18T04:19:19.729Z,21.30
2018-08-18T04:21:48.140Z,21.30
2018-08-18T04:24:16.837Z,21.30
2018-08-18T04:26:46.465Z,21.30
2018-08-18T04:29:15.164Z,21.30
2018-08-18T04:31:43.752Z,21.30
2018-08-18T04:34:14.660Z,21.40
2018-08-18T04:36:44.500Z,21.40
2018-08-18T04:39:13.874Z,21.40
2018-08-18T04:41:43.595Z,21.40
2018-08-18T04:44:13.178Z,21.40
2018-08-18T04:46:42.361Z,21.40
2018-08-18T04:49:10.031Z,21.50
2018-08-18T04:51:38.625Z,21.50
2018-08-18T04:54:06.284Z,21.50
2018-08-18T04:56:34.948Z,21.50
2018-08-18T04:59:03.620Z,21.40
2018-08-18T05:01:32.287Z,21.40
2018-08-18T05:04:06.659Z,21.40
2018-08-18T05:06:39.283Z,21.50
2018-08-18T05:09:08.278Z,21.40
2018-08-18T05:11:36.940Z,21.40
2018-08-18T05:14:05.592Z,21.40
2018-08-18T05:16:34.265Z,21.40
2018-08-18T05:19:03.065Z,21.40
2018-08-18T05:21:30.742Z,21.40
2018-08-18T05:24:04.152Z,21.40
2018-08-18T05:26:32.866Z,21.40
2018-08-18T05:29:01.544Z,21.40
2018-08-18T05:31:30.276Z,21.40
2018-08-18T05:33:58.952Z,21.40
2018-08-18T05:36:27.735Z,21.40
2018-08-18T05:38:56.396Z,21.40
2018-08-18T05:41:25.108Z,21.40
2018-08-18T05:43:53.971Z,21.40
2018-08-18T05:46:22.705Z,21.40
2018-08-18T05:48:50.375Z,21.40
2018-08-18T05:51:19.081Z,21.40
2018-08-18T05:53:47.792Z,21.40
2018-08-18T05:56:16.100Z,21.40
2018-08-18T05:58:51.084Z,21.40
2018-08-18T06:01:27.444Z,21.40
2018-08-18T06:04:31.176Z,21.40
2018-08-18T06:06:59.753Z,21.40
2018-08-18T06:09:27.446Z,21.40
2018-08-18T06:11:57.864Z,21.40
2018-08-18T06:14:25.549Z,21.40
2018-08-18T06:16:53.236Z,21.40
2018-08-18T06:19:20.895Z,21.50
2018-08-18T06:21:48.555Z,21.50
2018-08-18T06:24:16.219Z,21.50
2018-08-18T06:26:44.976Z,21.40
2018-08-18T06:29:14.108Z,21.50
2018-08-18T06:31:51.728Z,21.50
2018-08-18T06:34:20.304Z,21.50
2018-08-18T06:36:47.983Z,21.50
2018-08-18T06:39:16.573Z,21.50
2018-08-18T06:41:46.235Z,21.50
2018-08-18T06:44:15.432Z,21.60
2018-08-18T06:46:46.672Z,21.60
2018-08-18T06:49:15.698Z,21.60
2018-08-18T06:51:44.802Z,21.50
2018-08-18T06:54:13.718Z,21.50
2018-08-18T06:56:43.079Z,21.50
2018-08-18T06:59:10.756Z,21.50
2018-08-18T07:01:38.524Z,21.60
2018-08-18T07:04:07.983Z,21.60
2018-08-18T07:06:35.651Z,21.60
2018-08-18T07:09:03.376Z,21.60
2018-08-18T07:11:31.035Z,21.60
2018-08-18T07:14:25.483Z,21.60
2018-08-18T07:16:54.328Z,21.60
2018-08-18T07:19:22.943Z,21.60
2018-08-18T07:21:50.591Z,21.60
2018-08-18T07:24:18.247Z,21.60
2018-08-18T07:26:46.948Z,21.60
2018-08-18T07:29:15.500Z,21.60
2018-08-18T07:31:44.684Z,21.60
2018-08-18T07:34:14.109Z,21.60
2018-08-18T07:36:43.736Z,21.60
2018-08-18T07:39:13.357Z,21.60
2018-08-18T07:41:41.599Z,21.60
2018-08-18T07:44:10.148Z,21.60
2018-08-18T07:46:39.588Z,21.60
2018-08-18T07:49:07.241Z,21.60
2018-08-18T07:51:34.914Z,21.60
2018-08-18T07:54:02.581Z,21.60
2018-08-18T07:56:33.015Z,21.60
2018-08-18T07:59:01.740Z,21.60
2018-08-18T08:01:30.470Z,21.60
2018-08-18T08:03:58.128Z,21.60
2018-08-18T08:06:26.801Z,21.60
2018-08-18T08:08:54.968Z,21.60
2018-08-18T08:11:24.477Z,21.60
2018-08-18T08:13:53.136Z,21.60
2018-08-18T08:16:21.863Z,21.60
2018-08-18T08:18:49.545Z,21.60
2018-08-18T08:21:18.347Z,21.60
2018-08-18T08:23:47.064Z,21.60
2018-08-18T08:26:14.809Z,21.60
2018-08-18T08:28:44.659Z,21.60
2018-08-18T08:31:14.387Z,21.60
2018-08-18T08:33:43.899Z,21.60
2018-08-18T08:36:14.026Z,21.60
2018-08-18T08:38:49.305Z,21.60
2018-08-18T08:41:17.972Z,21.60
2018-08-18T08:43:47.850Z,21.60
2018-08-18T08:46:16.416Z,21.60
2018-08-18T08:48:45.554Z,21.60
2018-08-18T08:51:15.027Z,21.60
2018-08-18T08:53:44.669Z,21.60
2018-08-18T08:56:14.336Z,21.60
2018-08-18T08:58:50.949Z,21.60
2018-08-18T09:01:19.918Z,21.60
2018-08-18T09:03:48.644Z,21.60
2018-08-18T09:06:16.384Z,21.60
2018-08-18T09:08:49.472Z,21.60
2018-08-18T09:11:18.017Z,21.60
2018-08-18T09:13:55.788Z,21.60
2018-08-18T09:16:24.500Z,21.60
2018-08-18T09:18:53.262Z,21.60
2018-08-18T09:21:20.932Z,21.60
2018-08-18T09:23:49.620Z,21.60
2018-08-18T09:26:18.212Z,21.60
2018-08-18T09:28:45.904Z,21.60
2018-08-18T09:31:14.893Z,21.60
2018-08-18T09:33:43.538Z,21.50
2018-08-18T09:36:14.290Z,21.60
2018-08-18T09:38:43.796Z,21.50
2018-08-18T09:41:12.142Z,21.50
2018-08-18T09:43:39.820Z,21.50
2018-08-18T09:46:08.518Z,21.50
2018-08-18T09:48:36.199Z,21.50
2018-08-18T09:51:03.874Z,21.50
2018-08-18T09:53:31.584Z,21.60
2018-08-18T09:55:59.298Z,21.60
2018-08-18T09:58:26.964Z,21.60
2018-08-18T10:00:54.651Z,21.60
2018-08-18T10:03:23.328Z,21.60
2018-08-18T10:05:52.060Z,21.60
2018-08-18T10:08:19.763Z,21.60
2018-08-18T10:10:47.963Z,21.70
2018-08-18T10:13:16.528Z,21.70
2018-08-18T10:15:45.129Z,21.70
2018-08-18T10:18:14.232Z,21.70
2018-08-18T10:20:47.352Z,21.80
2018-08-18T10:23:15.912Z,21.80
2018-08-18T10:25:44.981Z,21.80
2018-08-18T10:28:13.803Z,21.70
2018-08-18T10:30:43.594Z,21.70
2018-08-18T10:33:11.762Z,21.70
2018-08-18T10:35:39.427Z,21.70
2018-08-18T10:38:07.967Z,21.60
2018-08-18T10:40:35.646Z,21.60
2018-08-18T10:43:03.309Z,21.60
2018-08-18T10:45:32.025Z,21.60
2018-08-18T10:48:00.722Z,21.60
2018-08-18T10:50:33.908Z,21.60
2018-08-18T10:53:01.588Z,21.60
2018-08-18T10:55:29.259Z,21.60
2018-08-18T10:58:05.676Z,21.50
2018-08-18T11:00:33.537Z,21.50
2018-08-18T11:03:02.637Z,21.60
2018-08-18T11:05:30.684Z,21.60
2018-08-18T11:08:04.041Z,21.60
2018-08-18T11:10:32.899Z,21.60
2018-08-18T11:13:00.649Z,21.60
2018-08-18T11:15:28.359Z,21.60
2018-08-18T11:17:57.521Z,21.60
2018-08-18T11:20:26.381Z,21.60
2018-08-18T11:23:03.362Z,21.60
2018-08-18T11:25:35.422Z,21.60
2018-08-18T11:28:03.235Z,21.60
2018-08-18T11:30:31.245Z,21.60
2018-08-18T11:33:00.745Z,21.60
2018-08-18T11:35:28.803Z,21.60
2018-08-18T11:38:07.072Z,21.60
2018-08-18T11:40:34.770Z,21.60
2018-08-18T11:43:03.004Z,21.60
2018-08-18T11:45:33.028Z,21.50
2018-08-18T11:48:04.528Z,21.50
2018-08-18T11:50:33.224Z,21.50
2018-08-18T11:53:02.555Z,21.60
2018-08-18T11:55:30.271Z,21.60
2018-08-18T11:58:01.422Z,21.60
2018-08-18T12:00:32.924Z,21.60
2018-08-18T12:03:05.209Z,21.60
2018-08-18T12:05:37.208Z,21.60
2018-08-18T12:08:05.369Z,21.60
2018-08-18T12:10:33.053Z,21.60
2018-08-18T12:13:01.705Z,21.50
2018-08-18T12:15:30.473Z,21.50
2018-08-18T12:17:59.340Z,21.50
2018-08-18T12:20:27.057Z,21.50
2018-08-18T12:22:55.164Z,21.50
2018-08-18T12:25:22.992Z,21.50
2018-08-18T12:28:06.933Z,21.50
2018-08-18T12:30:34.619Z,21.50
2018-08-18T12:33:07.716Z,21.50
2018-08-18T12:35:35.377Z,21.50
2018-08-18T12:38:04.072Z,21.50
2018-08-18T12:40:32.767Z,21.50
2018-08-18T12:43:00.449Z,21.50
2018-08-18T12:45:28.130Z,21.50
2018-08-18T12:47:59.088Z,21.50
2018-08-18T12:50:26.756Z,21.50
2018-08-18T12:52:54.512Z,21.50
2018-08-18T12:55:23.080Z,21.50
2018-08-18T12:57:51.834Z,21.50
2018-08-18T13:00:19.670Z,21.50
2018-08-18T13:02:49.315Z,21.50
2018-08-18T13:05:17.672Z,21.50
2018-08-18T13:07:45.796Z,21.50
2018-08-18T13:10:18.232Z,21.50
2018-08-18T13:12:45.953Z,21.50
2018-08-18T13:15:15.332Z,21.50
2018-08-18T13:17:44.452Z,21.50
2018-08-18T13:20:14.812Z,21.50
2018-08-18T13:22:44.146Z,21.50
2018-08-18T13:25:12.762Z,21.50
2018-08-18T13:27:44.745Z,21.50
2018-08-18T13:30:15.353Z,21.50
2018-08-18T13:32:44.336Z,21.50
2018-08-18T13:35:13.711Z,21.50
2018-08-18T13:37:41.857Z,21.50
2018-08-18T13:40:11.856Z,21.50
2018-08-18T13:42:39.785Z,21.50
2018-08-18T13:45:07.548Z,21.50
2018-08-18T13:47:46.058Z,21.50
2018-08-18T13:50:15.223Z,21.50
2018-08-18T13:52:48.832Z,21.50
2018-08-18T13:55:17.503Z,21.50
2018-08-18T13:57:46.882Z,21.50
2018-08-18T14:00:16.556Z,21.50
2018-08-18T14:02:46.569Z,21.50
2018-08-18T14:05:23.731Z,21.50
2018-08-18T14:08:01.675Z,21.50
2018-08-18T14:10:30.346Z,21.50
2018-08-18T14:13:00.449Z,21.50
2018-08-18T14:15:29.076Z,21.40
2018-08-18T14:18:03.224Z,21.40
2018-08-18T14:20:31.506Z,21.40
2018-08-18T14:23:04.824Z,21.40
2018-08-18T14:25:33.048Z,21.40
2018-08-18T14:29:04.236Z,21.40
2018-08-18T14:31:31.993Z,21.40
2018-08-18T14:33:59.740Z,21.40
2018-08-18T14:36:27.368Z,21.40
2018-08-18T14:39:01.721Z,21.40
2018-08-18T14:41:37.831Z,21.40
2018-08-18T14:44:06.751Z,21.40
2018-08-18T14:46:34.544Z,21.40
2018-08-18T14:49:02.140Z,21.40
2018-08-18T14:51:29.829Z,21.40
2018-08-18T14:53:58.588Z,21.40
2018-08-18T14:56:26.887Z,21.40
2018-08-18T14:58:55.570Z,21.40
2018-08-18T15:01:23.320Z,21.40
2018-08-18T15:03:52.040Z,21.40
2018-08-18T15:06:20.824Z,21.40
2018-08-18T15:08:49.546Z,21.40
2018-08-18T15:11:17.200Z,21.40
2018-08-18T15:13:44.868Z,21.40
2018-08-18T15:16:13.831Z,21.40
2018-08-18T15:18:41.515Z,21.40
2018-08-18T15:21:09.290Z,21.40
2018-08-18T15:23:36.948Z,21.40
2018-08-18T15:26:04.621Z,21.40
2018-08-18T15:28:32.284Z,21.40
2018-08-18T15:30:59.967Z,21.40
2018-08-18T15:33:28.304Z,21.40
2018-08-18T15:35:56.003Z,21.40
2018-08-18T15:38:33.739Z,21.40
2018-08-18T15:41:01.501Z,21.40
2018-08-18T15:43:29.416Z,21.40
2018-08-18T15:46:02.158Z,21.40
2018-08-18T15:48:30.103Z,21.40
2018-08-18T15:50:57.873Z,21.40
2018-08-18T15:53:58.912Z,21.40
2018-08-18T15:56:28.179Z,21.40
2018-08-18T15:58:57.660Z,21.40
2018-08-18T16:01:26.436Z,21.30
2018-08-18T16:03:54.676Z,21.40
2018-08-18T16:06:22.424Z,21.40
2018-08-18T16:08:50.359Z,21.40
2018-08-18T16:11:18.080Z,21.40
2018-08-18T16:13:45.768Z,21.40
2018-08-18T16:16:15.375Z,21.40
2018-08-18T16:18:45.548Z,21.40
2018-08-18T16:21:22.096Z,21.40
2018-08-18T16:23:50.708Z,21.40
2018-08-18T16:26:18.405Z,21.40
2018-08-18T16:28:46.095Z,21.40
2018-08-18T16:31:14.709Z,21.30
2018-08-18T16:33:43.734Z,21.40
2018-08-18T16:36:13.197Z,21.30
2018-08-18T16:38:40.926Z,21.30
2018-08-18T16:41:08.593Z,21.30
2018-08-18T16:43:37.408Z,21.30
2018-08-18T16:46:15.328Z,21.30
2018-08-18T16:48:44.734Z,21.30
2018-08-18T16:51:14.154Z,21.30
2018-08-18T16:53:44.087Z,21.30
2018-08-18T16:56:19.056Z,21.30
2018-08-18T16:58:50.924Z,21.30
2018-08-18T17:01:18.797Z,21.30
2018-08-18T17:03:46.491Z,21.30
2018-08-18T17:06:14.658Z,21.30
2018-08-18T17:08:43.672Z,21.30
2018-08-18T17:11:12.181Z,21.30
2018-08-18T17:13:39.908Z,21.30
2018-08-18T17:16:07.600Z,21.30
2018-08-18T17:18:35.301Z,21.30
2018-08-18T17:21:05.880Z,21.30
2018-08-18T17:23:35.949Z,21.30
2018-08-18T17:26:04.503Z,21.30
2018-08-18T17:28:32.835Z,21.30
2018-08-18T17:31:02.084Z,21.30
2018-08-18T17:33:29.836Z,21.30
2018-08-18T17:35:58.453Z,21.30
2018-08-18T17:38:27.137Z,21.30
2018-08-18T17:40:54.803Z,21.30
2018-08-18T17:43:23.493Z,21.30
2018-08-18T17:45:53.415Z,21.30
2018-08-18T17:48:22.972Z,21.30
2018-08-18T17:50:52.200Z,21.30
2018-08-18T17:53:19.885Z,21.30
2018-08-18T17:55:54.140Z,21.30
2018-08-18T17:58:22.739Z,21.30
2018-08-18T18:00:50.405Z,21.30
2018-08-18T18:03:18.098Z,21.30
2018-08-18T18:05:45.770Z,21.30
2018-08-18T18:08:15.296Z,21.30
2018-08-18T18:10:44.464Z,21.30
2018-08-18T18:13:29.699Z,21.30
2018-08-18T18:15:58.418Z,21.30
2018-08-18T18:18:31.629Z,21.30
2018-08-18T18:20:59.310Z,21.30
2018-08-18T18:23:27.007Z,21.30
2018-08-18T18:25:54.688Z,21.30
2018-08-18T18:28:22.391Z,21.30
2018-08-18T18:30:51.374Z,21.30
2018-08-18T18:33:19.172Z,21.30
2018-08-18T18:35:48.380Z,21.30
2018-08-18T18:38:16.071Z,21.30
2018-08-18T18:40:45.328Z,21.30
2018-08-18T18:43:15.089Z,21.30
2018-08-18T18:45:45.235Z,21.30
2018-08-18T18:48:16.101Z,21.30
2018-08-18T18:50:45.354Z,21.30
2018-08-18T18:53:13.993Z,21.30
2018-08-18T18:55:47.040Z,21.30
2018-08-18T18:58:15.208Z,21.30
2018-08-18T19:00:49.945Z,21.30
2018-08-18T19:03:18.623Z,21.30
2018-08-18T19:05:46.727Z,21.30
2018-08-18T19:08:18.756Z,21.30
2018-08-18T19:10:46.536Z,21.30
2018-08-18T19:13:15.216Z,21.30
2018-08-18T19:15:44.336Z,21.20
2018-08-18T19:18:14.524Z,21.30
2018-08-18T19:20:44.164Z,21.30
2018-08-18T19:23:17.990Z,21.20
2018-08-18T19:25:48.131Z,21.30
2018-08-18T19:28:17.171Z,21.20
2018-08-18T19:30:45.344Z,21.20
2018-08-18T19:33:15.628Z,21.20
2018-08-18T19:35:45.904Z,21.20
2018-08-18T19:38:15.032Z,21.20
2018-08-18T19:40:46.363Z,21.20
2018-08-18T19:43:15.868Z,21.20
2018-08-18T19:45:45.273Z,21.20
2018-08-18T19:48:15.340Z,21.20
2018-08-18T19:50:48.895Z,21.20
2018-08-18T19:53:16.849Z,21.20
2018-08-18T19:55:45.415Z,21.20
2018-08-18T19:58:14.624Z,21.20
2018-08-18T20:00:44.622Z,21.20
2018-08-18T20:03:16.232Z,21.20
2018-08-18T20:05:44.813Z,21.20
2018-08-18T20:08:16.092Z,21.20
2018-08-18T20:10:50.509Z,21.20
2018-08-18T20:13:18.657Z,21.20
2018-08-18T20:15:49.375Z,21.20
2018-08-18T20:18:18.236Z,21.20
2018-08-18T20:20:46.877Z,21.20
2018-08-18T20:23:16.168Z,21.20
2018-08-18T20:25:44.775Z,21.20
2018-08-18T20:28:13.794Z,21.20
2018-08-18T20:30:44.052Z,21.20
2018-08-18T20:33:11.715Z,21.20
2018-08-18T20:35:39.377Z,21.20
2018-08-18T20:38:07.065Z,21.20
2018-08-18T20:40:35.640Z,21.20
2018-08-18T20:43:04.219Z,21.20
2018-08-18T20:45:43.125Z,21.20
2018-08-18T20:48:15.483Z,21.20
2018-08-18T20:50:44.192Z,21.20
2018-08-18T20:53:14.311Z,21.20
2018-08-18T20:55:44.140Z,21.20
2018-08-18T20:58:12.108Z,21.20
2018-08-18T21:00:39.787Z,21.20
2018-08-18T21:03:08.474Z,21.20
2018-08-18T21:05:36.141Z,21.20
2018-08-18T21:08:20.744Z,21.20
2018-08-18T21:10:49.119Z,21.20
2018-08-18T21:13:16.840Z,21.20
2018-08-18T21:15:45.388Z,21.10
2018-08-18T21:18:18.330Z,21.20
2018-08-18T21:20:46.991Z,21.20
2018-08-18T21:23:16.164Z,21.20
2018-08-18T21:25:47.843Z,21.20
2018-08-18T21:28:16.656Z,21.20
2018-08-18T21:30:46.305Z,21.10
2018-08-18T21:33:16.071Z,21.10
2018-08-18T21:35:45.177Z,21.10
2018-08-18T21:38:15.339Z,21.10
2018-08-18T21:40:45.115Z,21.10
2018-08-18T21:43:18.727Z,21.20
2018-08-18T21:45:46.445Z,21.20
2018-08-18T21:48:14.597Z,21.20
2018-08-18T21:50:43.190Z,21.20
2018-08-18T21:53:13.592Z,21.20
2018-08-18T21:55:41.467Z,21.20
2018-08-18T21:58:10.621Z,21.20
2018-08-18T22:00:46.579Z,21.20
2018-08-18T22:03:17.196Z,21.20
2018-08-18T22:05:44.869Z,21.20
2018-08-18T22:08:17.828Z,21.20
2018-08-18T22:10:51.773Z,21.20
2018-08-18T22:13:21.591Z,21.10
2018-08-18T22:15:49.300Z,21.10
2018-08-18T22:18:17.010Z,21.20
2018-08-18T22:20:45.195Z,21.20
2018-08-18T22:23:13.983Z,21.20
2018-08-18T22:25:42.164Z,21.20
2018-08-18T22:28:09.863Z,21.20
2018-08-18T22:30:37.695Z,21.20
2018-08-18T22:33:05.386Z,21.20
2018-08-18T22:35:33.058Z,21.20
2018-08-18T22:38:00.737Z,21.20
2018-08-18T22:40:28.681Z,21.20
2018-08-18T22:42:56.404Z,21.20
2018-08-18T22:45:27.581Z,21.20
2018-08-18T22:47:55.264Z,21.20
2018-08-18T22:50:22.925Z,21.20
2018-08-18T22:52:51.748Z,21.10
2018-08-18T22:55:19.536Z,21.20
2018-08-18T22:58:02.407Z,21.20
2018-08-18T23:00:30.192Z,21.10
2018-08-18T23:02:58.900Z,21.10
2018-08-18T23:05:26.574Z,21.10
2018-08-18T23:07:55.675Z,21.10
2018-08-18T23:10:25.592Z,21.10
2018-08-18T23:12:54.179Z,21.10
2018-08-18T23:15:22.880Z,21.10
2018-08-18T23:17:50.552Z,21.10
2018-08-18T23:20:19.151Z,21.10
2018-08-18T23:23:01.036Z,21.10
2018-08-18T23:25:30.956Z,21.10
2018-08-18T23:27:58.721Z,21.10
2018-08-18T23:30:39.934Z,21.10
2018-08-18T23:33:09.509Z,21.10
2018-08-18T23:35:37.177Z,21.10
2018-08-18T23:38:05.761Z,21.10
2018-08-18T23:40:34.431Z,21.10
2018-08-18T23:43:03.122Z,21.10
2018-08-18T23:45:36.856Z,21.10
2018-08-18T23:48:06.153Z,21.10
2018-08-18T23:50:35.384Z,21.10
2018-08-18T23:53:07.685Z,21.10
2018-08-18T23:55:39.012Z,21.10
2018-08-18T23:58:06.696Z,21.10
